Terminal Aerodrome Forecast
Issued by NWS

Home | Current Version | Previous Version | Text Only | Print | Product List | Glossary On
Versions: 1 2 3 4 5 6 7 8 9 10 11 12 13 14 15 16
268
FTUS42 KTBW 210521
TAFPGD
TAF
KPGD 210521Z 2106/2206 06007KT P6SM SCT250
     FM211400 07011G16KT P6SM FEW090 SCT250
     FM211700 08013G18KT P6SM SCT020 BKN110
     FM220000 08009KT P6SM SCT020 BKN250=

USA.gov is the U.S. government's official web portal to all federal, state and local government web resources and services.